createdAt,value
2023-02-07T00:01:22.189Z,2.24
2023-02-07T00:03:52.224Z,2.19
2023-02-07T00:06:24.714Z,2.15
2023-02-07T00:08:54.683Z,2.18
2023-02-07T00:11:26.601Z,2.14
2023-02-07T00:13:57.862Z,2.28
2023-02-07T00:16:26.205Z,2.13
2023-02-07T00:18:58.362Z,2.02
2023-02-07T00:21:30.423Z,2.07
2023-02-07T00:24:01.001Z,2.00
2023-02-07T00:26:29.734Z,2.02
2023-02-07T00:28:58.589Z,1.99
2023-02-07T00:31:28.911Z,2.00
2023-02-07T00:33:58.992Z,1.82
2023-02-07T00:36:28.820Z,2.02
2023-02-07T00:39:01.960Z,2.10
2023-02-07T00:41:31.334Z,2.24
2023-02-07T00:44:00.792Z,2.36
2023-02-07T00:46:29.162Z,2.49
2023-02-07T00:48:57.180Z,2.69
2023-02-07T00:51:25.917Z,2.80
2023-02-07T00:53:54.843Z,2.77
2023-02-07T00:56:25.641Z,2.97
2023-02-07T00:58:54.314Z,3.09
2023-02-07T01:01:27.066Z,3.10
2023-02-07T01:03:56.168Z,3.03
2023-02-07T01:06:25.751Z,2.82
2023-02-07T01:08:58.738Z,2.68
2023-02-07T01:11:30.151Z,2.65
2023-02-07T01:14:00.573Z,2.51
2023-02-07T01:16:32.068Z,2.49
2023-02-07T01:19:04.857Z,2.36
2023-02-07T01:21:33.146Z,2.40
2023-02-07T01:24:01.712Z,2.39
2023-02-07T01:26:33.370Z,2.52
2023-02-07T01:29:02.538Z,2.60
2023-02-07T01:31:32.072Z,2.63
2023-02-07T01:34:04.193Z,2.69
2023-02-07T01:36:33.852Z,2.71
2023-02-07T01:39:04.087Z,2.70
2023-02-07T01:41:33.868Z,2.75
2023-02-07T01:44:07.497Z,2.66
2023-02-07T01:46:37.170Z,2.70
2023-02-07T01:49:11.342Z,2.63
2023-02-07T01:51:44.114Z,2.63
2023-02-07T01:54:17.220Z,2.53
2023-02-07T01:56:55.135Z,2.55
2023-02-07T01:59:27.004Z,2.44
2023-02-07T02:01:59.296Z,2.37
2023-02-07T02:04:27.180Z,2.29
2023-02-07T02:06:57.797Z,2.11
2023-02-07T02:09:26.033Z,2.08
2023-02-07T02:12:15.947Z,2.08
2023-02-07T02:15:05.941Z,1.97
2023-02-07T02:17:45.480Z,1.92
2023-02-07T02:21:11.103Z,1.94
2023-02-07T02:23:53.213Z,1.92
2023-02-07T02:26:46.288Z,1.84
2023-02-07T02:29:59.956Z,1.72
2023-02-07T02:33:13.102Z,1.44
2023-02-07T02:35:49.206Z,1.40
2023-02-07T02:38:27.799Z,1.38
2023-02-07T02:41:12.071Z,1.27
2023-02-07T02:43:46.826Z,1.07
2023-02-07T02:46:20.879Z,0.91
2023-02-07T02:48:53.997Z,0.85
2023-02-07T02:51:22.667Z,0.83
2023-02-07T02:53:55.117Z,0.82
2023-02-07T02:56:55.288Z,0.89
2023-02-07T02:59:42.329Z,0.90
2023-02-07T03:02:22.953Z,1.02
2023-02-07T03:05:13.157Z,1.04
2023-02-07T03:07:59.472Z,1.07
2023-02-07T03:10:37.090Z,1.03
2023-02-07T03:13:17.748Z,1.12
2023-02-07T03:16:00.846Z,1.08
2023-02-07T03:18:35.505Z,1.02
2023-02-07T03:21:09.780Z,0.97
2023-02-07T03:23:40.299Z,0.70
2023-02-07T03:26:26.648Z,0.62
2023-02-07T03:28:59.405Z,0.51
2023-02-07T03:31:31.917Z,0.42
2023-02-07T03:34:07.109Z,0.42
2023-02-07T03:36:41.746Z,0.51
2023-02-07T03:39:10.724Z,0.46
2023-02-07T03:41:43.298Z,0.37
2023-02-07T03:44:14.417Z,0.34
2023-02-07T03:46:43.810Z,0.23
2023-02-07T03:49:14.770Z,0.22
2023-02-07T03:51:45.614Z,0.06
2023-02-07T03:54:14.422Z,0.07
2023-02-07T03:56:42.986Z,0.13
2023-02-07T03:59:11.468Z,0.34
2023-02-07T04:01:42.340Z,0.18
2023-02-07T04:04:11.484Z,0.11
2023-02-07T04:06:40.229Z,0.06
2023-02-07T04:09:11.946Z,0.09
2023-02-07T04:11:40.438Z,0.13
2023-02-07T04:14:08.243Z,0.22
2023-02-07T04:16:37.772Z,0.32
2023-02-07T04:19:08.272Z,0.43
2023-02-07T04:21:37.837Z,0.43
2023-02-07T04:24:06.347Z,0.48
2023-02-07T04:26:35.450Z,0.58
2023-02-07T04:29:04.597Z,0.57
2023-02-07T04:31:33.238Z,0.62
2023-02-07T04:34:01.410Z,0.63
2023-02-07T04:36:31.391Z,0.59
2023-02-07T04:38:59.893Z,0.58
2023-02-07T04:41:28.537Z,0.42
2023-02-07T04:43:58.446Z,0.50
2023-02-07T04:46:28.500Z,0.47
2023-02-07T04:48:57.186Z,0.41
2023-02-07T04:51:28.007Z,0.42
2023-02-07T04:53:58.927Z,0.40
2023-02-07T04:56:27.904Z,0.36
2023-02-07T04:58:58.861Z,0.09
2023-02-07T05:01:27.698Z,0.07
2023-02-07T05:03:55.571Z,0.04
2023-02-07T05:06:24.764Z,-0.12
2023-02-07T05:08:54.962Z,-0.06
2023-02-07T05:11:22.774Z,-0.19
2023-02-07T05:13:52.204Z,-0.25
2023-02-07T05:16:22.919Z,-0.28
2023-02-07T05:18:51.663Z,-0.33
2023-02-07T05:21:22.045Z,-0.42
2023-02-07T05:23:53.887Z,-0.30
2023-02-07T05:26:25.395Z,-0.33
2023-02-07T05:28:53.552Z,-0.20
2023-02-07T05:31:44.478Z,-0.50
2023-02-07T05:34:14.581Z,-0.36
2023-02-07T05:36:44.918Z,-0.31
2023-02-07T05:39:14.897Z,-0.16
2023-02-07T05:41:43.482Z,-0.10
2023-02-07T05:44:12.674Z,-0.22
2023-02-07T05:46:44.607Z,-0.35
2023-02-07T05:49:15.615Z,-0.44
2023-02-07T05:51:51.648Z,-0.47
2023-02-07T05:54:21.316Z,-0.52
2023-02-07T05:56:49.787Z,-0.54
2023-02-07T05:59:19.257Z,-0.79
2023-02-07T06:01:53.279Z,-0.58
2023-02-07T06:04:22.375Z,-0.61
2023-02-07T06:06:53.188Z,-0.61
2023-02-07T06:09:21.768Z,-0.50
2023-02-07T06:11:50.443Z,-0.39
2023-02-07T06:14:20.389Z,-0.57
2023-02-07T06:16:48.910Z,-0.40
2023-02-07T06:19:20.131Z,-0.31
2023-02-07T06:21:49.314Z,-0.28
2023-02-07T06:24:17.557Z,-0.39
2023-02-07T06:26:47.080Z,-0.52
2023-02-07T06:29:18.349Z,-0.57
2023-02-07T06:31:47.246Z,-0.45
2023-02-07T06:34:16.887Z,-0.61
2023-02-07T06:36:46.177Z,-0.55
2023-02-07T06:39:14.167Z,-0.57
2023-02-07T06:41:42.184Z,-0.51
2023-02-07T06:44:10.782Z,-0.53
2023-02-07T06:46:44.338Z,-0.55
2023-02-07T06:49:14.794Z,-0.47
2023-02-07T06:51:43.694Z,-0.40
2023-02-07T06:54:17.591Z,-0.49
2023-02-07T06:56:47.794Z,-0.34
2023-02-07T06:59:16.463Z,-0.41
2023-02-07T07:01:44.936Z,-0.43
2023-02-07T07:04:12.816Z,-0.45
2023-02-07T07:06:41.444Z,-0.45
2023-02-07T07:09:09.489Z,-0.36
2023-02-07T07:11:44.026Z,-0.31
2023-02-07T07:14:14.150Z,-0.27
2023-02-07T07:16:43.617Z,-0.35
2023-02-07T07:19:13.532Z,-0.21
2023-02-07T07:21:44.022Z,-0.14
2023-02-07T07:24:12.302Z,-0.19
2023-02-07T07:26:49.481Z,-0.10
2023-02-07T07:29:19.774Z,-0.14
2023-02-07T07:31:48.140Z,-0.14
2023-02-07T07:34:18.187Z,-0.12
2023-02-07T07:36:46.554Z,-0.38
2023-02-07T07:39:17.853Z,-0.15
2023-02-07T07:41:47.540Z,-0.07
2023-02-07T07:44:17.251Z,-0.05
2023-02-07T07:46:46.230Z,0.07
2023-02-07T07:49:14.738Z,0.20
2023-02-07T07:51:49.618Z,0.22
2023-02-07T07:54:19.258Z,0.33
2023-02-07T07:56:49.052Z,0.38
2023-02-07T07:59:24.007Z,0.36
2023-02-07T08:01:52.994Z,0.83
2023-02-07T08:04:21.071Z,0.77
2023-02-07T08:06:49.921Z,0.72
2023-02-07T08:09:20.522Z,0.70
2023-02-07T08:11:51.234Z,0.68
2023-02-07T08:14:19.889Z,0.73
2023-02-07T08:16:49.729Z,0.79
2023-02-07T08:19:17.898Z,0.67
2023-02-07T08:21:46.273Z,0.63
2023-02-07T08:24:16.804Z,0.78
2023-02-07T08:26:46.732Z,0.90
2023-02-07T08:29:18.940Z,0.99
2023-02-07T08:31:48.083Z,1.02
2023-02-07T08:34:18.633Z,1.08
2023-02-07T08:36:48.120Z,1.11
2023-02-07T08:39:19.173Z,1.20
2023-02-07T08:41:49.013Z,1.19
2023-02-07T08:44:20.172Z,1.20
2023-02-07T08:46:49.828Z,1.20
2023-02-07T08:49:20.106Z,1.32
2023-02-07T08:51:50.697Z,1.32
2023-02-07T08:54:19.380Z,1.35
2023-02-07T08:56:49.565Z,1.48
2023-02-07T08:59:21.097Z,1.31
2023-02-07T09:01:50.138Z,1.27
2023-02-07T09:04:22.430Z,1.50
2023-02-07T09:06:53.855Z,1.51
2023-02-07T09:09:22.254Z,1.42
2023-02-07T09:11:52.400Z,1.47
2023-02-07T09:14:22.285Z,1.34
2023-02-07T09:16:51.210Z,1.48
2023-02-07T09:19:20.005Z,1.33
2023-02-07T09:21:49.106Z,1.47
2023-02-07T09:24:26.106Z,1.64
2023-02-07T09:26:54.835Z,1.70
2023-02-07T09:29:26.067Z,1.67
2023-02-07T09:31:55.908Z,1.71
2023-02-07T09:34:24.442Z,1.72
2023-02-07T09:36:53.482Z,1.75
2023-02-07T09:39:22.332Z,1.70
2023-02-07T09:42:07.848Z,1.77
2023-02-07T09:44:51.011Z,1.79
2023-02-07T09:47:23.305Z,2.05
2023-02-07T09:49:56.003Z,2.16
2023-02-07T09:52:30.912Z,2.11
2023-02-07T09:55:06.687Z,2.47
2023-02-07T09:57:44.430Z,2.49
2023-02-07T10:00:32.184Z,2.36
2023-02-07T10:03:18.708Z,2.17
2023-02-07T10:05:50.244Z,2.30
2023-02-07T10:08:28.265Z,2.06
2023-02-07T10:11:15.742Z,2.08
2023-02-07T10:14:02.179Z,2.20
2023-02-07T10:17:10.586Z,2.39
2023-02-07T10:19:57.954Z,2.48
2023-02-07T10:22:33.973Z,2.49
2023-02-07T10:25:16.612Z,2.47
2023-02-07T10:28:00.222Z,2.33
2023-02-07T10:30:34.136Z,2.34
2023-02-07T10:33:21.046Z,2.36
2023-02-07T10:35:49.690Z,2.42
2023-02-07T10:38:29.345Z,2.55
2023-02-07T10:41:04.503Z,2.49
2023-02-07T10:43:39.831Z,2.51
2023-02-07T10:46:15.249Z,2.54
2023-02-07T10:48:48.554Z,2.70
2023-02-07T10:51:32.859Z,2.74
2023-02-07T10:54:08.945Z,2.66
2023-02-07T10:56:43.536Z,2.86
2023-02-07T10:59:45.963Z,2.83
2023-02-07T11:02:53.428Z,2.82
2023-02-07T11:05:41.101Z,2.95
2023-02-07T11:08:25.934Z,3.05
2023-02-07T11:10:58.710Z,3.21
2023-02-07T11:13:32.857Z,3.35
2023-02-07T11:16:07.082Z,3.35
2023-02-07T11:18:45.808Z,3.59
2023-02-07T11:21:27.472Z,3.31
2023-02-07T11:23:59.912Z,3.44
2023-02-07T11:26:29.220Z,3.59
2023-02-07T11:29:07.895Z,3.67
2023-02-07T11:31:39.397Z,3.52
2023-02-07T11:34:30.998Z,3.60
2023-02-07T11:37:21.085Z,3.39
2023-02-07T11:39:50.069Z,3.43
2023-02-07T11:42:21.385Z,3.58
2023-02-07T11:44:52.034Z,3.56
2023-02-07T11:47:25.994Z,3.47
2023-02-07T11:49:59.410Z,3.65
2023-02-07T11:52:29.884Z,3.68
2023-02-07T11:55:01.563Z,3.92
2023-02-07T11:57:34.517Z,3.74
2023-02-07T12:00:07.973Z,4.06
2023-02-07T12:02:39.283Z,4.21
2023-02-07T12:05:21.406Z,3.90
2023-02-07T12:07:54.286Z,4.08
2023-02-07T12:10:25.277Z,4.07
2023-02-07T12:13:00.906Z,4.05
2023-02-07T12:15:37.298Z,4.25
2023-02-07T12:18:13.482Z,4.31
2023-02-07T12:20:47.911Z,4.18
2023-02-07T12:26:20.895Z,4.21
2023-02-07T12:29:11.287Z,4.40
2023-02-07T12:32:11.777Z,4.28
2023-02-07T12:34:49.033Z,4.55
2023-02-07T12:37:27.478Z,4.35
2023-02-07T12:40:07.579Z,4.46
2023-02-07T12:42:41.527Z,4.44
2023-02-07T12:45:17.239Z,4.39
2023-02-07T12:47:53.881Z,4.48
2023-02-07T12:50:31.169Z,4.97
2023-02-07T12:53:19.465Z,5.04
2023-02-07T12:56:04.878Z,4.88
2023-02-07T12:58:47.875Z,4.86
2023-02-07T13:01:25.815Z,4.63
2023-02-07T13:04:31.035Z,4.95
2023-02-07T13:07:19.056Z,5.07
2023-02-07T13:10:02.865Z,4.90
2023-02-07T13:12:42.638Z,4.71
2023-02-07T13:15:22.474Z,4.71
2023-02-07T13:18:02.262Z,4.74
2023-02-07T13:20:46.498Z,5.08
2023-02-07T13:23:23.295Z,5.10
2023-02-07T13:25:58.422Z,5.03
2023-02-07T13:28:37.006Z,5.17
2023-02-07T13:31:08.723Z,5.04
2023-02-07T13:33:42.599Z,4.97
2023-02-07T13:36:25.303Z,5.08
2023-02-07T13:39:19.984Z,5.50
2023-02-07T13:41:58.610Z,5.24
2023-02-07T13:44:39.250Z,5.30
2023-02-07T13:47:20.807Z,5.32
2023-02-07T13:49:58.608Z,5.32
2023-02-07T13:52:35.220Z,5.19
2023-02-07T13:55:19.096Z,5.16
2023-02-07T13:58:05.954Z,5.17
2023-02-07T14:00:59.643Z,5.27
2023-02-07T14:03:33.356Z,5.60
2023-02-07T14:06:23.664Z,5.50
2023-02-07T14:09:06.775Z,5.45
2023-02-07T14:11:44.129Z,5.43
2023-02-07T14:14:18.156Z,5.29
2023-02-07T14:16:59.947Z,5.45
2023-02-07T14:19:51.314Z,5.55
2023-02-07T14:22:23.140Z,5.36
2023-02-07T14:25:16.211Z,5.41
2023-02-07T14:28:21.008Z,5.30
2023-02-07T14:31:14.690Z,5.64
2023-02-07T14:34:15.174Z,5.40
2023-02-07T14:36:44.711Z,5.45
2023-02-07T14:39:31.281Z,5.41
2023-02-07T14:42:15.014Z,5.66
2023-02-07T14:44:48.135Z,5.80
2023-02-07T14:47:25.698Z,5.71
2023-02-07T14:50:00.035Z,5.86
2023-02-07T14:52:31.285Z,5.89
2023-02-07T14:55:06.318Z,5.68
2023-02-07T14:57:52.344Z,5.57
2023-02-07T15:00:31.620Z,5.31
2023-02-07T15:03:05.099Z,5.28
2023-02-07T15:05:37.180Z,5.23
2023-02-07T15:08:20.002Z,5.30
2023-02-07T15:10:57.059Z,5.26
2023-02-07T15:13:29.985Z,5.28
2023-02-07T15:16:03.109Z,5.27
2023-02-07T15:18:39.238Z,5.29
2023-02-07T15:21:20.727Z,5.32
2023-02-07T15:23:55.997Z,5.39
2023-02-07T15:26:27.786Z,5.34
2023-02-07T15:29:02.963Z,5.35
2023-02-07T15:31:32.698Z,5.28
2023-02-07T15:34:04.187Z,5.06
2023-02-07T15:36:37.767Z,5.01
2023-02-07T15:39:26.636Z,5.24
2023-02-07T15:42:05.204Z,5.27
2023-02-07T15:44:35.646Z,5.08
2023-02-07T15:47:10.195Z,5.04
2023-02-07T15:49:41.694Z,4.93
2023-02-07T15:52:21.879Z,4.98
2023-02-07T15:54:52.754Z,4.84
2023-02-07T15:57:28.368Z,4.72
2023-02-07T16:00:01.737Z,4.82
2023-02-07T16:02:33.590Z,4.61
2023-02-07T16:05:12.449Z,4.58
2023-02-07T16:07:48.810Z,4.42
2023-02-07T16:10:20.532Z,4.38
2023-02-07T16:12:54.265Z,4.24
2023-02-07T16:15:28.185Z,4.24
2023-02-07T16:17:57.143Z,4.07
2023-02-07T16:20:26.624Z,3.93
2023-02-07T16:22:59.279Z,3.95
2023-02-07T16:25:35.166Z,3.79
2023-02-07T16:28:10.093Z,3.66
2023-02-07T16:30:41.587Z,3.61
2023-02-07T16:33:14.277Z,3.58
2023-02-07T16:35:44.821Z,3.62
2023-02-07T16:38:14.830Z,3.58
2023-02-07T16:40:48.091Z,3.53
2023-02-07T16:43:40.084Z,3.38
2023-02-07T16:46:10.706Z,3.21
2023-02-07T16:48:39.112Z,3.17
2023-02-07T16:51:08.000Z,3.24
2023-02-07T16:53:45.774Z,3.09
2023-02-07T16:56:20.252Z,2.97
2023-02-07T16:58:49.148Z,3.05
2023-02-07T17:01:20.321Z,3.04
2023-02-07T17:03:51.049Z,3.04
2023-02-07T17:06:20.966Z,3.03
2023-02-07T17:08:52.083Z,3.02
2023-02-07T17:11:25.580Z,3.01
2023-02-07T17:13:56.394Z,2.94
2023-02-07T17:16:26.176Z,2.87
2023-02-07T17:18:55.519Z,2.93
2023-02-07T17:21:25.721Z,2.60
2023-02-07T17:26:57.320Z,2.70
2023-02-07T17:29:27.032Z,2.63
2023-02-07T17:31:56.042Z,2.63
2023-02-07T17:34:26.890Z,2.71
2023-02-07T17:36:55.254Z,2.76
2023-02-07T17:39:29.804Z,2.71
2023-02-07T17:41:59.764Z,2.56
2023-02-07T17:44:29.705Z,2.49
2023-02-07T17:47:00.178Z,2.62
2023-02-07T17:49:32.064Z,2.67
2023-02-07T17:52:01.452Z,2.80
2023-02-07T17:54:43.215Z,2.67
2023-02-07T17:57:18.496Z,2.37
2023-02-07T17:59:48.715Z,2.40
2023-02-07T18:02:19.472Z,2.16
2023-02-07T18:04:49.698Z,2.07
2023-02-07T18:07:18.150Z,1.81
2023-02-07T18:09:51.389Z,1.91
2023-02-07T18:12:22.384Z,1.73
2023-02-07T18:14:54.024Z,1.74
2023-02-07T18:17:23.457Z,1.61
2023-02-07T18:19:57.099Z,1.59
2023-02-07T18:22:27.415Z,1.55
2023-02-07T18:25:01.906Z,1.51
2023-02-07T18:27:33.207Z,1.48
2023-02-07T18:30:03.566Z,1.42
2023-02-07T18:32:35.760Z,1.46
2023-02-07T18:35:05.987Z,1.49
2023-02-07T18:37:36.309Z,1.33
2023-02-07T18:40:16.004Z,1.45
2023-02-07T18:42:45.174Z,1.35
2023-02-07T18:45:19.604Z,1.30
2023-02-07T18:47:54.488Z,1.21
2023-02-07T18:50:23.685Z,1.16
2023-02-07T18:52:53.074Z,1.11
2023-02-07T18:55:23.865Z,1.07
2023-02-07T18:57:52.135Z,0.94
2023-02-07T19:00:23.904Z,1.07
2023-02-07T19:02:55.170Z,1.01
2023-02-07T19:05:24.426Z,1.07
2023-02-07T19:07:55.189Z,1.11
2023-02-07T19:10:30.170Z,1.13
2023-02-07T19:12:58.757Z,1.09
2023-02-07T19:15:27.826Z,1.07
2023-02-07T19:17:58.159Z,0.99
2023-02-07T19:20:28.342Z,1.04
2023-02-07T19:22:56.474Z,1.88
2023-02-07T19:25:27.045Z,2.12
2023-02-07T19:27:55.561Z,2.27
2023-02-07T19:30:29.206Z,1.96
2023-02-07T19:32:57.564Z,1.58
2023-02-07T19:35:28.426Z,1.25
2023-02-07T19:38:00.389Z,1.16
2023-02-07T19:40:30.514Z,0.98
2023-02-07T19:43:00.363Z,0.86
2023-02-07T19:45:31.513Z,0.69
2023-02-07T19:48:02.236Z,0.60
2023-02-07T19:50:32.173Z,0.57
2023-02-07T19:53:03.807Z,0.57
2023-02-07T19:55:39.099Z,0.51
2023-02-07T19:58:08.160Z,0.48
2023-02-07T20:00:39.667Z,0.47
2023-02-07T20:03:10.989Z,0.46
2023-02-07T20:05:48.701Z,0.44
2023-02-07T20:08:22.751Z,0.43
2023-02-07T20:10:55.101Z,0.45
2023-02-07T20:13:24.614Z,0.37
2023-02-07T20:15:52.623Z,0.37
2023-02-07T20:18:21.973Z,0.26
2023-02-07T20:20:51.274Z,0.11
2023-02-07T20:23:19.432Z,0.02
2023-02-07T20:25:51.476Z,0.06
2023-02-07T20:28:22.099Z,0.04
2023-02-07T20:30:52.516Z,0.02
2023-02-07T20:33:23.432Z,-0.04
2023-02-07T20:35:51.919Z,0.05
2023-02-07T20:38:23.011Z,0.17
2023-02-07T20:40:51.032Z,0.15
2023-02-07T20:43:24.345Z,-0.10
2023-02-07T20:45:52.808Z,0.06
2023-02-07T20:48:22.384Z,0.12
2023-02-07T20:50:59.217Z,0.00
2023-02-07T20:53:53.654Z,0.07
2023-02-07T20:56:39.578Z,-0.09
2023-02-07T20:59:16.817Z,-0.15
2023-02-07T21:01:51.743Z,-0.26
2023-02-07T21:04:19.968Z,-0.20
2023-02-07T21:06:49.165Z,-0.14
2023-02-07T21:09:18.730Z,-0.06
2023-02-07T21:11:48.970Z,-0.02
2023-02-07T21:14:22.313Z,-0.07
2023-02-07T21:16:51.193Z,-0.01
2023-02-07T21:19:19.938Z,-0.04
2023-02-07T21:21:48.065Z,-0.19
2023-02-07T21:24:19.124Z,-0.25
2023-02-07T21:26:49.191Z,-0.19
2023-02-07T21:29:20.726Z,-0.22
2023-02-07T21:31:49.685Z,-0.27
2023-02-07T21:34:22.104Z,-0.42
2023-02-07T21:36:51.363Z,-0.50
2023-02-07T21:39:20.818Z,-0.64
2023-02-07T21:41:51.643Z,-0.44
2023-02-07T21:44:27.108Z,-0.40
2023-02-07T21:46:57.161Z,-0.40
2023-02-07T21:49:25.706Z,-0.34
2023-02-07T21:51:54.027Z,-0.59
2023-02-07T21:54:23.578Z,-0.50
2023-02-07T21:56:52.853Z,-0.58
2023-02-07T21:59:23.734Z,-0.61
2023-02-07T22:01:54.384Z,-0.55
2023-02-07T22:04:22.604Z,-0.54
2023-02-07T22:06:53.332Z,-0.61
2023-02-07T22:09:23.677Z,-0.69
2023-02-07T22:11:54.456Z,-0.74
2023-02-07T22:14:25.021Z,-0.84
2023-02-07T22:16:55.512Z,-1.50
2023-02-07T22:19:28.015Z,-0.85
2023-02-07T22:21:59.094Z,-0.98
2023-02-07T22:24:32.545Z,-0.69
2023-02-07T22:27:02.867Z,-0.61
2023-02-07T22:29:36.362Z,-0.59
2023-02-07T22:32:04.716Z,-0.69
2023-02-07T22:34:33.286Z,-0.81
2023-02-07T22:37:02.962Z,-0.96
2023-02-07T22:39:35.289Z,-1.03
2023-02-07T22:42:04.746Z,-0.96
2023-02-07T22:44:35.877Z,-1.02
2023-02-07T22:47:05.991Z,-0.89
2023-02-07T22:49:37.669Z,-0.86
2023-02-07T22:52:08.991Z,-0.80
2023-02-07T22:54:37.986Z,-1.08
2023-02-07T22:57:15.588Z,-0.96
2023-02-07T22:59:46.049Z,-0.93
2023-02-07T23:02:16.526Z,-1.17
2023-02-07T23:04:45.718Z,-0.90
2023-02-07T23:07:16.230Z,-1.09
2023-02-07T23:09:44.724Z,-1.06
2023-02-07T23:12:15.966Z,-1.17
2023-02-07T23:14:46.539Z,-1.21
2023-02-07T23:17:16.469Z,-1.26
2023-02-07T23:19:46.985Z,-1.05
2023-02-07T23:22:18.000Z,-0.86
2023-02-07T23:24:47.440Z,-0.87
2023-02-07T23:27:16.326Z,-0.94
2023-02-07T23:29:44.455Z,-1.07
2023-02-07T23:32:13.246Z,-0.99
2023-02-07T23:34:43.119Z,-1.10
2023-02-07T23:37:12.547Z,-1.03
2023-02-07T23:39:42.891Z,-1.00
2023-02-07T23:42:12.725Z,-0.90
2023-02-07T23:44:42.261Z,-0.92
2023-02-07T23:47:10.608Z,-1.05
2023-02-07T23:49:41.062Z,-1.36
2023-02-07T23:52:14.815Z,-1.30
2023-02-07T23:54:43.636Z,-1.31
2023-02-07T23:57:15.215Z,-1.31
2023-02-07T23:59:46.024Z,-1.19
